sensor_id;sensor_type;location;lat;lon;timestamp;P1;durP1;ratioP1;P2;durP2;ratioP2
21501;SDS011;27639;48.674;9.242;2024-03-02T00:00:03;16.65;;;11.40;;
21501;SDS011;27639;48.674;9.242;2024-03-02T00:02:44;15.93;;;11.25;;
21501;SDS011;27639;48.674;9.242;2024-03-02T00:05:11;15.85;;;10.98;;
21501;SDS011;27639;48.674;9.242;2024-03-02T00:07:41;15.73;;;11.32;;
21501;SDS011;27639;48.674;9.242;2024-03-02T00:10:08;16.95;;;12.27;;
21501;SDS011;27639;48.674;9.242;2024-03-02T00:12:37;15.00;;;10.95;;
21501;SDS011;27639;48.674;9.242;2024-03-02T00:15:46;14.15;;;10.50;;
21501;SDS011;27639;48.674;9.242;2024-03-02T00:17:55;16.60;;;11.68;;
21501;SDS011;27639;48.674;9.242;2024-03-02T00:20:23;17.00;;;11.38;;
21501;SDS011;27639;48.674;9.242;2024-03-02T00:22:52;15.88;;;11.48;;
21501;SDS011;27639;48.674;9.242;2024-03-02T00:25:49;15.50;;;11.20;;
21501;SDS011;27639;48.674;9.242;2024-03-02T00:33:30;18.20;;;12.43;;
21501;SDS011;27639;48.674;9.242;2024-03-02T00:35:59;17.00;;;11.57;;
21501;SDS011;27639;48.674;9.242;2024-03-02T00:38:26;16.95;;;11.75;;
21501;SDS011;27639;48.674;9.242;2024-03-02T00:40:52;15.55;;;11.30;;
21501;SDS011;27639;48.674;9.242;2024-03-02T00:43:38;17.42;;;11.75;;
21501;SDS011;27639;48.674;9.242;2024-03-02T00:46:12;14.80;;;10.75;;
21501;SDS011;27639;48.674;9.242;2024-03-02T00:48:46;15.23;;;10.35;;
21501;SDS011;27639;48.674;9.242;2024-03-02T00:51:16;14.82;;;10.80;;
21501;SDS011;27639;48.674;9.242;2024-03-02T00:53:41;16.42;;;10.73;;
21501;SDS011;27639;48.674;9.242;2024-03-02T00:56:09;16.20;;;10.95;;
21501;SDS011;27639;48.674;9.242;2024-03-02T00:58:36;16.48;;;11.18;;
21501;SDS011;27639;48.674;9.242;2024-03-02T01:01:02;15.93;;;11.05;;
21501;SDS011;27639;48.674;9.242;2024-03-02T01:03:28;13.95;;;10.65;;
21501;SDS011;27639;48.674;9.242;2024-03-02T01:05:53;16.45;;;11.43;;
21501;SDS011;27639;48.674;9.242;2024-03-02T01:08:19;16.33;;;10.60;;
21501;SDS011;27639;48.674;9.242;2024-03-02T01:10:44;13.52;;;10.10;;
21501;SDS011;27639;48.674;9.242;2024-03-02T01:13:10;15.77;;;10.05;;
21501;SDS011;27639;48.674;9.242;2024-03-02T01:15:35;13.25;;;9.45;;
21501;SDS011;27639;48.674;9.242;2024-03-02T01:18:01;13.77;;;9.88;;
21501;SDS011;27639;48.674;9.242;2024-03-02T01:20:27;14.32;;;10.13;;
21501;SDS011;27639;48.674;9.242;2024-03-02T01:22:52;13.45;;;10.13;;
21501;SDS011;27639;48.674;9.242;2024-03-02T01:25:18;13.70;;;9.88;;
21501;SDS011;27639;48.674;9.242;2024-03-02T01:27:43;15.30;;;10.27;;
21501;SDS011;27639;48.674;9.242;2024-03-02T01:30:09;12.27;;;9.15;;
21501;SDS011;27639;48.674;9.242;2024-03-02T01:32:37;12.88;;;9.20;;
21501;SDS011;27639;48.674;9.242;2024-03-02T01:35:03;13.55;;;10.10;;
21501;SDS011;27639;48.674;9.242;2024-03-02T01:37:29;14.88;;;9.60;;
21501;SDS011;27639;48.674;9.242;2024-03-02T01:39:55;15.30;;;10.07;;
21501;SDS011;27639;48.674;9.242;2024-03-02T01:42:20;14.10;;;9.73;;
21501;SDS011;27639;48.674;9.242;2024-03-02T01:44:46;14.50;;;9.73;;
21501;SDS011;27639;48.674;9.242;2024-03-02T01:47:11;13.68;;;9.30;;
21501;SDS011;27639;48.674;9.242;2024-03-02T01:49:37;14.10;;;10.18;;
21501;SDS011;27639;48.674;9.242;2024-03-02T01:52:03;15.13;;;9.65;;
21501;SDS011;27639;48.674;9.242;2024-03-02T01:54:29;13.02;;;9.00;;
21501;SDS011;27639;48.674;9.242;2024-03-02T01:56:55;12.73;;;9.23;;
21501;SDS011;27639;48.674;9.242;2024-03-02T01:59:20;14.02;;;9.52;;
21501;SDS011;27639;48.674;9.242;2024-03-02T02:01:47;14.73;;;9.85;;
21501;SDS011;27639;48.674;9.242;2024-03-02T02:04:12;14.55;;;9.43;;
21501;SDS011;27639;48.674;9.242;2024-03-02T02:06:38;13.27;;;9.05;;
21501;SDS011;27639;48.674;9.242;2024-03-02T02:09:04;14.98;;;10.00;;
21501;SDS011;27639;48.674;9.242;2024-03-02T02:11:30;16.40;;;10.00;;
21501;SDS011;27639;48.674;9.242;2024-03-02T02:13:56;14.50;;;9.50;;
21501;SDS011;27639;48.674;9.242;2024-03-02T02:16:22;14.85;;;9.73;;
21501;SDS011;27639;48.674;9.242;2024-03-02T02:18:47;14.00;;;9.50;;
21501;SDS011;27639;48.674;9.242;2024-03-02T02:21:13;12.95;;;9.23;;
21501;SDS011;27639;48.674;9.242;2024-03-02T02:23:38;12.77;;;9.10;;
21501;SDS011;27639;48.674;9.242;2024-03-02T02:26:04;12.88;;;8.90;;
21501;SDS011;27639;48.674;9.242;2024-03-02T02:28:30;14.32;;;9.30;;
21501;SDS011;27639;48.674;9.242;2024-03-02T02:30:55;14.48;;;9.73;;
21501;SDS011;27639;48.674;9.242;2024-03-02T02:33:21;13.98;;;9.30;;
21501;SDS011;27639;48.674;9.242;2024-03-02T02:35:47;13.25;;;8.65;;
21501;SDS011;27639;48.674;9.242;2024-03-02T02:38:12;16.73;;;9.80;;
21501;SDS011;27639;48.674;9.242;2024-03-02T02:40:38;12.90;;;9.23;;
21501;SDS011;27639;48.674;9.242;2024-03-02T02:43:03;12.32;;;9.05;;
21501;SDS011;27639;48.674;9.242;2024-03-02T02:45:29;13.93;;;8.98;;
21501;SDS011;27639;48.674;9.242;2024-03-02T02:47:55;13.27;;;9.63;;
21501;SDS011;27639;48.674;9.242;2024-03-02T02:50:20;12.93;;;9.00;;
21501;SDS011;27639;48.674;9.242;2024-03-02T02:52:46;12.88;;;8.80;;
21501;SDS011;27639;48.674;9.242;2024-03-02T02:55:12;13.57;;;9.05;;
21501;SDS011;27639;48.674;9.242;2024-03-02T02:57:39;12.73;;;8.82;;
21501;SDS011;27639;48.674;9.242;2024-03-02T03:00:09;11.70;;;8.05;;
21501;SDS011;27639;48.674;9.242;2024-03-02T03:02:39;13.18;;;9.00;;
21501;SDS011;27639;48.674;9.242;2024-03-02T03:05:07;13.82;;;8.93;;
21501;SDS011;27639;48.674;9.242;2024-03-02T03:07:36;12.90;;;8.63;;
21501;SDS011;27639;48.674;9.242;2024-03-02T03:10:04;13.20;;;8.73;;
21501;SDS011;27639;48.674;9.242;2024-03-02T03:12:31;12.80;;;8.05;;
21501;SDS011;27639;48.674;9.242;2024-03-02T03:14:57;12.10;;;8.55;;
21501;SDS011;27639;48.674;9.242;2024-03-02T03:17:23;11.48;;;7.70;;
21501;SDS011;27639;48.674;9.242;2024-03-02T03:19:49;14.20;;;9.15;;
21501;SDS011;27639;48.674;9.242;2024-03-02T03:22:15;12.73;;;8.60;;
21501;SDS011;27639;48.674;9.242;2024-03-02T03:24:40;15.10;;;8.88;;
21501;SDS011;27639;48.674;9.242;2024-03-02T03:27:06;13.48;;;8.80;;
21501;SDS011;27639;48.674;9.242;2024-03-02T03:29:32;13.82;;;9.00;;
21501;SDS011;27639;48.674;9.242;2024-03-02T03:31:57;13.57;;;9.07;;
21501;SDS011;27639;48.674;9.242;2024-03-02T03:34:23;11.82;;;8.32;;
21501;SDS011;27639;48.674;9.242;2024-03-02T03:36:48;11.32;;;8.15;;
21501;SDS011;27639;48.674;9.242;2024-03-02T03:39:14;13.70;;;8.77;;
21501;SDS011;27639;48.674;9.242;2024-03-02T03:41:42;14.25;;;9.98;;
21501;SDS011;27639;48.674;9.242;2024-03-02T03:44:08;15.57;;;9.60;;
21501;SDS011;27639;48.674;9.242;2024-03-02T03:46:34;13.25;;;9.20;;
21501;SDS011;27639;48.674;9.242;2024-03-02T03:49:00;12.98;;;9.13;;
21501;SDS011;27639;48.674;9.242;2024-03-02T03:51:25;11.98;;;8.23;;
21501;SDS011;27639;48.674;9.242;2024-03-02T03:53:51;13.80;;;8.65;;
21501;SDS011;27639;48.674;9.242;2024-03-02T03:56:16;14.90;;;9.98;;
21501;SDS011;27639;48.674;9.242;2024-03-02T03:58:42;14.05;;;9.45;;
21501;SDS011;27639;48.674;9.242;2024-03-02T04:01:07;12.63;;;8.63;;
21501;SDS011;27639;48.674;9.242;2024-03-02T04:03:33;11.35;;;8.52;;
21501;SDS011;27639;48.674;9.242;2024-03-02T04:05:58;13.85;;;9.23;;
21501;SDS011;27639;48.674;9.242;2024-03-02T04:08:24;12.57;;;8.32;;
21501;SDS011;27639;48.674;9.242;2024-03-02T04:10:50;12.73;;;8.77;;
21501;SDS011;27639;48.674;9.242;2024-03-02T04:13:15;12.20;;;8.40;;
21501;SDS011;27639;48.674;9.242;2024-03-02T04:15:41;12.45;;;8.15;;
21501;SDS011;27639;48.674;9.242;2024-03-02T04:18:06;12.32;;;8.60;;
21501;SDS011;27639;48.674;9.242;2024-03-02T04:20:32;12.95;;;8.73;;
21501;SDS011;27639;48.674;9.242;2024-03-02T04:22:58;11.05;;;7.70;;
21501;SDS011;27639;48.674;9.242;2024-03-02T04:25:23;11.98;;;8.02;;
21501;SDS011;27639;48.674;9.242;2024-03-02T04:27:49;13.18;;;8.32;;
21501;SDS011;27639;48.674;9.242;2024-03-02T04:30:14;11.68;;;8.02;;
21501;SDS011;27639;48.674;9.242;2024-03-02T04:32:40;11.82;;;8.27;;
21501;SDS011;27639;48.674;9.242;2024-03-02T04:35:05;11.85;;;8.20;;
21501;SDS011;27639;48.674;9.242;2024-03-02T04:37:35;14.10;;;9.05;;
21501;SDS011;27639;48.674;9.242;2024-03-02T04:40:00;13.15;;;8.32;;
21501;SDS011;27639;48.674;9.242;2024-03-02T04:42:26;12.23;;;7.95;;
21501;SDS011;27639;48.674;9.242;2024-03-02T04:44:51;11.60;;;8.27;;
21501;SDS011;27639;48.674;9.242;2024-03-02T04:47:17;12.27;;;8.20;;
21501;SDS011;27639;48.674;9.242;2024-03-02T04:49:42;12.52;;;7.93;;
21501;SDS011;27639;48.674;9.242;2024-03-02T04:52:08;11.10;;;8.00;;
21501;SDS011;27639;48.674;9.242;2024-03-02T04:54:34;11.43;;;7.57;;
21501;SDS011;27639;48.674;9.242;2024-03-02T04:57:19;11.82;;;8.15;;
21501;SDS011;27639;48.674;9.242;2024-03-02T04:59:45;13.68;;;9.02;;
21501;SDS011;27639;48.674;9.242;2024-03-02T05:02:10;18.70;;;11.55;;
21501;SDS011;27639;48.674;9.242;2024-03-02T05:04:38;17.25;;;10.05;;
21501;SDS011;27639;48.674;9.242;2024-03-02T05:07:04;18.35;;;11.40;;
21501;SDS011;27639;48.674;9.242;2024-03-02T05:09:30;20.00;;;11.15;;
21501;SDS011;27639;48.674;9.242;2024-03-02T05:11:55;17.90;;;10.75;;
21501;SDS011;27639;48.674;9.242;2024-03-02T05:14:36;19.05;;;10.82;;
21501;SDS011;27639;48.674;9.242;2024-03-02T05:17:03;15.82;;;9.30;;
21501;SDS011;27639;48.674;9.242;2024-03-02T05:19:29;16.15;;;9.75;;
21501;SDS011;27639;48.674;9.242;2024-03-02T05:21:54;14.95;;;9.13;;
21501;SDS011;27639;48.674;9.242;2024-03-02T05:24:20;13.20;;;9.07;;
21501;SDS011;27639;48.674;9.242;2024-03-02T05:26:45;14.75;;;9.20;;
21501;SDS011;27639;48.674;9.242;2024-03-02T05:29:11;16.42;;;9.38;;
21501;SDS011;27639;48.674;9.242;2024-03-02T05:31:37;14.80;;;8.90;;
21501;SDS011;27639;48.674;9.242;2024-03-02T05:34:02;13.68;;;9.55;;
21501;SDS011;27639;48.674;9.242;2024-03-02T05:36:28;20.73;;;12.25;;
21501;SDS011;27639;48.674;9.242;2024-03-02T05:38:54;15.25;;;9.60;;
21501;SDS011;27639;48.674;9.242;2024-03-02T05:41:19;16.40;;;10.18;;
21501;SDS011;27639;48.674;9.242;2024-03-02T05:43:45;16.65;;;10.13;;
21501;SDS011;27639;48.674;9.242;2024-03-02T05:46:11;17.60;;;10.35;;
21501;SDS011;27639;48.674;9.242;2024-03-02T05:48:37;16.30;;;10.35;;
21501;SDS011;27639;48.674;9.242;2024-03-02T05:51:02;14.45;;;9.43;;
21501;SDS011;27639;48.674;9.242;2024-03-02T05:53:28;16.33;;;9.77;;
21501;SDS011;27639;48.674;9.242;2024-03-02T05:55:54;14.43;;;9.50;;
21501;SDS011;27639;48.674;9.242;2024-03-02T05:58:21;14.43;;;9.43;;
21501;SDS011;27639;48.674;9.242;2024-03-02T06:00:49;13.25;;;9.02;;
21501;SDS011;27639;48.674;9.242;2024-03-02T06:03:14;12.10;;;8.68;;
21501;SDS011;27639;48.674;9.242;2024-03-02T06:05:40;13.63;;;9.20;;
21501;SDS011;27639;48.674;9.242;2024-03-02T06:08:07;13.13;;;8.57;;
21501;SDS011;27639;48.674;9.242;2024-03-02T06:10:32;13.88;;;9.10;;
21501;SDS011;27639;48.674;9.242;2024-03-02T06:12:58;12.93;;;8.95;;
21501;SDS011;27639;48.674;9.242;2024-03-02T06:15:26;13.07;;;8.60;;
21501;SDS011;27639;48.674;9.242;2024-03-02T06:17:52;13.15;;;8.43;;
21501;SDS011;27639;48.674;9.242;2024-03-02T06:20:17;12.07;;;8.23;;
21501;SDS011;27639;48.674;9.242;2024-03-02T06:22:43;14.18;;;8.57;;
21501;SDS011;27639;48.674;9.242;2024-03-02T06:25:08;13.07;;;8.50;;
21501;SDS011;27639;48.674;9.242;2024-03-02T06:27:34;15.02;;;9.77;;
21501;SDS011;27639;48.674;9.242;2024-03-02T06:29:59;14.40;;;9.80;;
21501;SDS011;27639;48.674;9.242;2024-03-02T06:32:25;15.38;;;10.20;;
21501;SDS011;27639;48.674;9.242;2024-03-02T06:34:51;16.70;;;10.77;;
21501;SDS011;27639;48.674;9.242;2024-03-02T06:37:16;18.17;;;11.43;;
21501;SDS011;27639;48.674;9.242;2024-03-02T06:39:42;14.65;;;9.90;;
21501;SDS011;27639;48.674;9.242;2024-03-02T06:42:08;17.35;;;11.48;;
21501;SDS011;27639;48.674;9.242;2024-03-02T06:44:34;17.98;;;10.40;;
21501;SDS011;27639;48.674;9.242;2024-03-02T06:46:59;16.35;;;10.23;;
21501;SDS011;27639;48.674;9.242;2024-03-02T06:49:25;16.73;;;10.05;;
21501;SDS011;27639;48.674;9.242;2024-03-02T06:51:51;17.15;;;11.15;;
21501;SDS011;27639;48.674;9.242;2024-03-02T06:54:16;16.30;;;9.77;;
21501;SDS011;27639;48.674;9.242;2024-03-02T06:56:42;16.40;;;10.52;;
21501;SDS011;27639;48.674;9.242;2024-03-02T06:59:07;15.32;;;10.35;;
21501;SDS011;27639;48.674;9.242;2024-03-02T07:01:33;16.88;;;11.02;;
21501;SDS011;27639;48.674;9.242;2024-03-02T07:03:59;17.58;;;10.95;;
21501;SDS011;27639;48.674;9.242;2024-03-02T07:06:25;17.85;;;11.07;;
21501;SDS011;27639;48.674;9.242;2024-03-02T07:08:50;16.90;;;11.48;;
21501;SDS011;27639;48.674;9.242;2024-03-02T07:11:16;17.00;;;10.98;;
21501;SDS011;27639;48.674;9.242;2024-03-02T07:13:41;17.48;;;10.40;;
21501;SDS011;27639;48.674;9.242;2024-03-02T07:16:07;17.13;;;10.95;;
21501;SDS011;27639;48.674;9.242;2024-03-02T07:18:35;16.58;;;10.98;;
21501;SDS011;27639;48.674;9.242;2024-03-02T07:21:09;17.05;;;10.65;;
21501;SDS011;27639;48.674;9.242;2024-03-02T07:23:35;16.05;;;11.20;;
21501;SDS011;27639;48.674;9.242;2024-03-02T07:26:01;13.85;;;10.23;;
21501;SDS011;27639;48.674;9.242;2024-03-02T07:28:27;26.40;;;18.88;;
21501;SDS011;27639;48.674;9.242;2024-03-02T07:31:02;16.42;;;11.65;;
21501;SDS011;27639;48.674;9.242;2024-03-02T07:33:29;12.50;;;8.88;;
21501;SDS011;27639;48.674;9.242;2024-03-02T07:35:55;14.65;;;9.40;;
21501;SDS011;27639;48.674;9.242;2024-03-02T07:38:21;17.85;;;11.27;;
21501;SDS011;27639;48.674;9.242;2024-03-02T07:40:48;14.15;;;9.70;;
21501;SDS011;27639;48.674;9.242;2024-03-02T07:43:18;13.65;;;9.23;;
21501;SDS011;27639;48.674;9.242;2024-03-02T07:45:44;14.35;;;9.02;;
21501;SDS011;27639;48.674;9.242;2024-03-02T07:48:10;13.15;;;9.25;;
21501;SDS011;27639;48.674;9.242;2024-03-02T07:50:36;15.27;;;9.93;;
21501;SDS011;27639;48.674;9.242;2024-03-02T07:53:02;12.60;;;9.05;;
21501;SDS011;27639;48.674;9.242;2024-03-02T07:55:28;12.85;;;8.93;;
21501;SDS011;27639;48.674;9.242;2024-03-02T07:57:55;12.32;;;8.73;;
21501;SDS011;27639;48.674;9.242;2024-03-02T08:00:21;14.15;;;9.50;;
21501;SDS011;27639;48.674;9.242;2024-03-02T08:02:47;11.00;;;7.78;;
21501;SDS011;27639;48.674;9.242;2024-03-02T08:05:13;13.57;;;8.95;;
21501;SDS011;27639;48.674;9.242;2024-03-02T08:07:39;12.18;;;9.10;;
21501;SDS011;27639;48.674;9.242;2024-03-02T08:10:06;11.18;;;8.60;;
21501;SDS011;27639;48.674;9.242;2024-03-02T08:12:32;12.80;;;8.77;;
21501;SDS011;27639;48.674;9.242;2024-03-02T08:14:57;11.40;;;7.55;;
21501;SDS011;27639;48.674;9.242;2024-03-02T08:17:23;11.18;;;8.02;;
21501;SDS011;27639;48.674;9.242;2024-03-02T08:19:48;10.55;;;7.78;;
21501;SDS011;27639;48.674;9.242;2024-03-02T08:22:14;10.52;;;7.43;;
21501;SDS011;27639;48.674;9.242;2024-03-02T08:24:40;11.00;;;8.20;;
21501;SDS011;27639;48.674;9.242;2024-03-02T08:27:06;10.15;;;7.00;;
21501;SDS011;27639;48.674;9.242;2024-03-02T08:29:32;10.63;;;7.15;;
21501;SDS011;27639;48.674;9.242;2024-03-02T08:31:57;9.80;;;7.05;;
21501;SDS011;27639;48.674;9.242;2024-03-02T08:34:23;10.55;;;6.75;;
21501;SDS011;27639;48.674;9.242;2024-03-02T08:36:48;9.52;;;6.95;;
21501;SDS011;27639;48.674;9.242;2024-03-02T08:39:14;10.00;;;7.03;;
21501;SDS011;27639;48.674;9.242;2024-03-02T08:41:46;10.25;;;8.05;;
21501;SDS011;27639;48.674;9.242;2024-03-02T08:44:12;11.48;;;8.50;;
21501;SDS011;27639;48.674;9.242;2024-03-02T08:46:39;11.05;;;7.88;;
21501;SDS011;27639;48.674;9.242;2024-03-02T08:49:05;9.93;;;7.35;;
21501;SDS011;27639;48.674;9.242;2024-03-02T08:51:31;12.13;;;7.88;;
21501;SDS011;27639;48.674;9.242;2024-03-02T08:53:57;9.73;;;7.47;;
21501;SDS011;27639;48.674;9.242;2024-03-02T08:56:23;9.20;;;6.88;;
21501;SDS011;27639;48.674;9.242;2024-03-02T08:58:49;10.20;;;7.32;;
21501;SDS011;27639;48.674;9.242;2024-03-02T09:01:16;10.77;;;7.53;;
21501;SDS011;27639;48.674;9.242;2024-03-02T09:03:42;11.45;;;7.40;;
21501;SDS011;27639;48.674;9.242;2024-03-02T09:06:11;10.02;;;7.05;;
21501;SDS011;27639;48.674;9.242;2024-03-02T09:08:37;8.95;;;6.63;;
21501;SDS011;27639;48.674;9.242;2024-03-02T09:11:03;10.02;;;7.40;;
21501;SDS011;27639;48.674;9.242;2024-03-02T09:13:30;8.65;;;6.43;;
21501;SDS011;27639;48.674;9.242;2024-03-02T09:15:56;10.23;;;7.15;;
21501;SDS011;27639;48.674;9.242;2024-03-02T09:18:21;10.10;;;7.00;;
21501;SDS011;27639;48.674;9.242;2024-03-02T09:20:47;9.70;;;7.05;;
21501;SDS011;27639;48.674;9.242;2024-03-02T09:23:12;8.75;;;7.00;;
21501;SDS011;27639;48.674;9.242;2024-03-02T09:25:38;8.20;;;6.00;;
21501;SDS011;27639;48.674;9.242;2024-03-02T09:28:04;9.68;;;6.35;;
21501;SDS011;27639;48.674;9.242;2024-03-02T09:30:29;8.48;;;6.18;;
21501;SDS011;27639;48.674;9.242;2024-03-02T09:32:55;9.27;;;6.75;;
21501;SDS011;27639;48.674;9.242;2024-03-02T09:35:20;9.15;;;6.13;;
21501;SDS011;27639;48.674;9.242;2024-03-02T09:37:46;9.65;;;6.85;;
21501;SDS011;27639;48.674;9.242;2024-03-02T09:40:12;7.40;;;5.88;;
21501;SDS011;27639;48.674;9.242;2024-03-02T09:42:39;8.85;;;5.80;;
21501;SDS011;27639;48.674;9.242;2024-03-02T09:45:05;6.88;;;4.75;;
21501;SDS011;27639;48.674;9.242;2024-03-02T09:47:31;7.22;;;4.18;;
21501;SDS011;27639;48.674;9.242;2024-03-02T09:49:57;6.22;;;3.90;;
21501;SDS011;27639;48.674;9.242;2024-03-02T09:52:23;8.13;;;5.85;;
21501;SDS011;27639;48.674;9.242;2024-03-02T09:54:49;7.35;;;4.45;;
21501;SDS011;27639;48.674;9.242;2024-03-02T09:57:15;7.35;;;5.00;;
21501;SDS011;27639;48.674;9.242;2024-03-02T09:59:41;7.03;;;4.30;;
21501;SDS011;27639;48.674;9.242;2024-03-02T10:02:06;6.22;;;4.10;;
21501;SDS011;27639;48.674;9.242;2024-03-02T10:04:33;6.95;;;4.65;;
21501;SDS011;27639;48.674;9.242;2024-03-02T10:07:10;6.00;;;3.72;;
21501;SDS011;27639;48.674;9.242;2024-03-02T10:09:43;5.78;;;4.00;;
21501;SDS011;27639;48.674;9.242;2024-03-02T10:12:11;6.18;;;4.30;;
21501;SDS011;27639;48.674;9.242;2024-03-02T10:14:38;8.00;;;4.28;;
21501;SDS011;27639;48.674;9.242;2024-03-02T10:17:06;5.97;;;4.40;;
21501;SDS011;27639;48.674;9.242;2024-03-02T10:19:36;6.03;;;3.97;;
21501;SDS011;27639;48.674;9.242;2024-03-02T10:22:02;6.80;;;4.70;;
21501;SDS011;27639;48.674;9.242;2024-03-02T10:27:10;6.15;;;3.90;;
21501;SDS011;27639;48.674;9.242;2024-03-02T10:29:40;6.50;;;3.85;;
21501;SDS011;27639;48.674;9.242;2024-03-02T10:32:08;6.10;;;4.28;;
21501;SDS011;27639;48.674;9.242;2024-03-02T10:34:35;6.40;;;4.20;;
21501;SDS011;27639;48.674;9.242;2024-03-02T10:37:01;5.65;;;3.72;;
21501;SDS011;27639;48.674;9.242;2024-03-02T10:39:27;5.43;;;3.55;;
21501;SDS011;27639;48.674;9.242;2024-03-02T10:41:53;6.43;;;3.95;;
21501;SDS011;27639;48.674;9.242;2024-03-02T10:44:21;7.22;;;3.70;;
21501;SDS011;27639;48.674;9.242;2024-03-02T10:46:48;5.50;;;3.83;;
21501;SDS011;27639;48.674;9.242;2024-03-02T10:49:15;5.07;;;3.40;;
21501;SDS011;27639;48.674;9.242;2024-03-02T10:51:42;5.20;;;3.17;;
21501;SDS011;27639;48.674;9.242;2024-03-02T10:54:08;5.60;;;3.53;;
21501;SDS011;27639;48.674;9.242;2024-03-02T10:56:34;5.13;;;3.38;;
21501;SDS011;27639;48.674;9.242;2024-03-02T10:59:06;6.68;;;3.78;;
21501;SDS011;27639;48.674;9.242;2024-03-02T11:01:57;4.93;;;3.42;;
21501;SDS011;27639;48.674;9.242;2024-03-02T11:04:25;7.35;;;4.40;;
21501;SDS011;27639;48.674;9.242;2024-03-02T11:06:52;6.90;;;4.38;;
21501;SDS011;27639;48.674;9.242;2024-03-02T11:09:25;3.47;;;2.10;;
21501;SDS011;27639;48.674;9.242;2024-03-02T11:12:35;4.35;;;2.10;;
21501;SDS011;27639;48.674;9.242;2024-03-02T11:14:45;3.88;;;2.25;;
21501;SDS011;27639;48.674;9.242;2024-03-02T11:17:11;4.55;;;2.70;;
21501;SDS011;27639;48.674;9.242;2024-03-02T11:19:40;4.28;;;2.75;;
21501;SDS011;27639;48.674;9.242;2024-03-02T11:22:07;4.80;;;2.47;;
21501;SDS011;27639;48.674;9.242;2024-03-02T11:24:34;4.35;;;2.60;;
21501;SDS011;27639;48.674;9.242;2024-03-02T11:27:00;5.38;;;3.47;;
21501;SDS011;27639;48.674;9.242;2024-03-02T11:29:47;4.45;;;2.60;;
21501;SDS011;27639;48.674;9.242;2024-03-02T11:32:14;5.53;;;3.05;;
21501;SDS011;27639;48.674;9.242;2024-03-02T11:34:49;4.05;;;2.22;;
21501;SDS011;27639;48.674;9.242;2024-03-02T11:37:16;4.10;;;2.20;;
21501;SDS011;27639;48.674;9.242;2024-03-02T11:39:43;4.03;;;1.80;;
21501;SDS011;27639;48.674;9.242;2024-03-02T11:42:10;3.30;;;1.80;;
21501;SDS011;27639;48.674;9.242;2024-03-02T11:44:38;2.50;;;1.20;;
21501;SDS011;27639;48.674;9.242;2024-03-02T11:47:06;3.35;;;1.55;;
21501;SDS011;27639;48.674;9.242;2024-03-02T11:52:03;3.78;;;1.42;;
21501;SDS011;27639;48.674;9.242;2024-03-02T11:54:34;3.55;;;2.03;;
21501;SDS011;27639;48.674;9.242;2024-03-02T11:57:02;2.88;;;1.45;;
21501;SDS011;27639;48.674;9.242;2024-03-02T11:59:31;4.03;;;1.70;;
21501;SDS011;27639;48.674;9.242;2024-03-02T12:01:57;3.85;;;1.38;;
21501;SDS011;27639;48.674;9.242;2024-03-02T12:04:24;3.10;;;1.40;;
21501;SDS011;27639;48.674;9.242;2024-03-02T12:06:54;2.75;;;1.30;;
21501;SDS011;27639;48.674;9.242;2024-03-02T12:09:21;2.85;;;1.13;;
21501;SDS011;27639;48.674;9.242;2024-03-02T12:11:47;3.45;;;1.67;;
21501;SDS011;27639;48.674;9.242;2024-03-02T12:14:12;3.22;;;1.63;;
21501;SDS011;27639;48.674;9.242;2024-03-02T12:16:38;3.30;;;1.60;;
21501;SDS011;27639;48.674;9.242;2024-03-02T12:19:05;3.35;;;1.50;;
21501;SDS011;27639;48.674;9.242;2024-03-02T12:21:31;3.15;;;1.65;;
21501;SDS011;27639;48.674;9.242;2024-03-02T12:23:57;3.28;;;1.60;;
21501;SDS011;27639;48.674;9.242;2024-03-02T12:26:22;4.82;;;1.77;;
21501;SDS011;27639;48.674;9.242;2024-03-02T12:28:48;3.88;;;1.40;;
21501;SDS011;27639;48.674;9.242;2024-03-02T12:31:14;4.65;;;1.23;;
21501;SDS011;27639;48.674;9.242;2024-03-02T12:33:40;2.67;;;1.30;;
21501;SDS011;27639;48.674;9.242;2024-03-02T12:36:09;5.85;;;1.70;;
21501;SDS011;27639;48.674;9.242;2024-03-02T12:38:37;2.53;;;1.20;;
21501;SDS011;27639;48.674;9.242;2024-03-02T12:41:03;2.75;;;1.05;;
21501;SDS011;27639;48.674;9.242;2024-03-02T12:43:30;4.28;;;1.23;;
21501;SDS011;27639;48.674;9.242;2024-03-02T12:45:59;2.10;;;1.00;;
21501;SDS011;27639;48.674;9.242;2024-03-02T12:48:25;2.30;;;1.00;;
21501;SDS011;27639;48.674;9.242;2024-03-02T12:50:50;2.65;;;0.90;;
21501;SDS011;27639;48.674;9.242;2024-03-02T12:53:16;2.28;;;0.90;;
21501;SDS011;27639;48.674;9.242;2024-03-02T12:55:42;3.05;;;1.20;;
21501;SDS011;27639;48.674;9.242;2024-03-02T12:58:16;3.13;;;1.00;;
21501;SDS011;27639;48.674;9.242;2024-03-02T13:00:48;2.08;;;0.80;;
21501;SDS011;27639;48.674;9.242;2024-03-02T13:03:14;2.92;;;1.00;;
21501;SDS011;27639;48.674;9.242;2024-03-02T13:05:40;3.58;;;1.00;;
21501;SDS011;27639;48.674;9.242;2024-03-02T13:08:06;2.10;;;0.80;;
21501;SDS011;27639;48.674;9.242;2024-03-02T13:10:32;2.30;;;1.00;;
21501;SDS011;27639;48.674;9.242;2024-03-02T13:12:58;2.30;;;0.80;;
21501;SDS011;27639;48.674;9.242;2024-03-02T13:15:25;2.85;;;1.20;;
21501;SDS011;27639;48.674;9.242;2024-03-02T13:17:52;2.80;;;0.80;;
21501;SDS011;27639;48.674;9.242;2024-03-02T13:20:17;3.08;;;0.80;;
21501;SDS011;27639;48.674;9.242;2024-03-02T13:22:44;2.40;;;1.10;;
21501;SDS011;27639;48.674;9.242;2024-03-02T13:25:09;2.25;;;0.93;;
21501;SDS011;27639;48.674;9.242;2024-03-02T13:27:36;2.20;;;0.90;;
21501;SDS011;27639;48.674;9.242;2024-03-02T13:30:02;1.95;;;0.82;;
21501;SDS011;27639;48.674;9.242;2024-03-02T13:32:30;3.17;;;0.93;;
21501;SDS011;27639;48.674;9.242;2024-03-02T13:34:56;2.08;;;0.75;;
21501;SDS011;27639;48.674;9.242;2024-03-02T13:37:22;2.72;;;0.90;;
21501;SDS011;27639;48.674;9.242;2024-03-02T13:39:47;1.90;;;0.90;;
21501;SDS011;27639;48.674;9.242;2024-03-02T13:42:13;2.55;;;0.90;;
21501;SDS011;27639;48.674;9.242;2024-03-02T13:44:40;2.60;;;1.00;;
21501;SDS011;27639;48.674;9.242;2024-03-02T13:47:09;2.72;;;1.02;;
21501;SDS011;27639;48.674;9.242;2024-03-02T13:49:35;2.75;;;1.00;;
21501;SDS011;27639;48.674;9.242;2024-03-02T13:52:06;3.08;;;1.48;;
21501;SDS011;27639;48.674;9.242;2024-03-02T13:54:43;2.40;;;1.00;;
21501;SDS011;27639;48.674;9.242;2024-03-02T13:57:10;2.38;;;1.02;;
21501;SDS011;27639;48.674;9.242;2024-03-02T13:59:36;3.15;;;0.98;;
21501;SDS011;27639;48.674;9.242;2024-03-02T14:02:03;2.30;;;1.00;;
21501;SDS011;27639;48.674;9.242;2024-03-02T14:04:30;2.47;;;1.00;;
21501;SDS011;27639;48.674;9.242;2024-03-02T14:06:58;1.88;;;0.68;;
21501;SDS011;27639;48.674;9.242;2024-03-02T14:09:23;2.95;;;0.90;;
21501;SDS011;27639;48.674;9.242;2024-03-02T14:11:50;3.80;;;0.90;;
21501;SDS011;27639;48.674;9.242;2024-03-02T14:14:16;4.25;;;0.90;;
21501;SDS011;27639;48.674;9.242;2024-03-02T14:16:42;2.30;;;1.00;;
21501;SDS011;27639;48.674;9.242;2024-03-02T14:19:10;2.30;;;0.93;;
21501;SDS011;27639;48.674;9.242;2024-03-02T14:21:36;2.60;;;1.05;;
21501;SDS011;27639;48.674;9.242;2024-03-02T14:24:02;1.85;;;0.90;;
21501;SDS011;27639;48.674;9.242;2024-03-02T14:26:28;2.00;;;1.00;;
21501;SDS011;27639;48.674;9.242;2024-03-02T14:28:54;2.20;;;0.90;;
21501;SDS011;27639;48.674;9.242;2024-03-02T14:31:19;2.60;;;0.93;;
21501;SDS011;27639;48.674;9.242;2024-03-02T14:33:45;2.30;;;0.90;;
21501;SDS011;27639;48.674;9.242;2024-03-02T14:36:11;2.10;;;0.90;;
21501;SDS011;27639;48.674;9.242;2024-03-02T14:38:37;1.70;;;0.70;;
21501;SDS011;27639;48.674;9.242;2024-03-02T14:41:03;1.98;;;0.70;;
21501;SDS011;27639;48.674;9.242;2024-03-02T14:43:29;2.08;;;0.88;;